Time,TemperatureF,DewpointF,PressureIn,WindDirection,WindDirectionDegrees,WindSpeedMPH,WindSpeedGustMPH,Humidity,HourlyPrecipIn,Conditions,Clouds,dailyrainin,SoftwareType,DateUTC
2013-04-25 00:01:00,35.4,34.2,30.19,SSW,200,1.0,2.0,95,0.00,,,0.02,meteohub,2013-04-25 04:01:00,
2013-04-25 00:02:00,35.4,34.2,30.19,SSW,200,0.0,2.0,95,0.00,,,0.02,meteohub,2013-04-25 04:02:00,
2013-04-25 00:05:00,35.8,34.5,30.19,SSW,200,3.0,3.0,95,0.00,,,0.02,meteohub,2013-04-25 04:05:00,
2013-04-25 00:11:00,36.0,34.9,30.19,SSW,203,1.0,2.0,96,0.00,,,0.02,meteohub,2013-04-25 04:11:00,
2013-04-25 00:16:00,36.1,35.1,30.19,SSW,192,2.0,6.0,96,0.00,,,0.02,meteohub,2013-04-25 04:16:00,
2013-04-25 00:21:00,36.1,35.1,30.19,SSW,194,0.0,6.0,96,0.00,,,0.02,meteohub,2013-04-25 04:21:00,
2013-04-25 00:26:00,36.3,35.2,30.19,SSW,194,0.0,7.0,96,0.00,,,0.02,meteohub,2013-04-25 04:26:00,
2013-04-25 00:32:00,36.3,35.2,30.20,SSW,194,0.0,7.0,96,0.00,,,0.02,meteohub,2013-04-25 04:32:00,
2013-04-25 00:37:00,36.7,35.6,30.20,SSW,194,3.0,5.0,96,0.00,,,0.02,meteohub,2013-04-25 04:37:00,
2013-04-25 00:42:00,36.7,35.6,30.20,SSW,194,0.0,5.0,96,0.00,,,0.02,meteohub,2013-04-25 04:42:00,
2013-04-25 00:47:00,36.7,35.6,30.20,SSW,194,0.0,5.0,96,0.00,,,0.02,meteohub,2013-04-25 04:47:00,
2013-04-25 00:52:00,36.5,35.4,30.20,SSW,194,0.0,5.0,96,0.00,,,0.02,meteohub,2013-04-25 04:52:00,
2013-04-25 00:57:00,36.3,35.1,30.20,SSW,194,0.0,4.0,95,0.00,,,0.02,meteohub,2013-04-25 04:57:00,
2013-04-25 01:02:00,36.1,34.9,30.20,SSW,194,0.0,4.0,95,0.00,,,0.02,meteohub,2013-04-25 05:02:00,
2013-04-25 01:07:00,36.0,34.7,30.20,SSW,194,0.0,4.0,95,0.00,,,0.02,meteohub,2013-04-25 05:07:00,
2013-04-25 01:12:00,35.8,34.5,30.20,SSW,194,0.0,4.0,95,0.00,,,0.02,meteohub,2013-04-25 05:12:00,
2013-04-25 01:17:00,35.8,34.5,30.20,SSW,194,0.0,0.0,95,0.00,,,0.02,meteohub,2013-04-25 05:17:00,
2013-04-25 01:22:00,35.6,34.3,30.20,SSW,194,0.0,0.0,95,0.00,,,0.02,meteohub,2013-04-25 05:22:00,
2013-04-25 01:27:00,35.8,34.7,30.20,SSW,194,2.0,3.0,96,0.00,,,0.02,meteohub,2013-04-25 05:27:00,
2013-04-25 01:32:00,35.8,34.7,30.20,SSW,194,3.0,3.0,96,0.00,,,0.02,meteohub,2013-04-25 05:32:00,
2013-04-25 01:37:00,36.0,34.9,30.20,SSW,194,0.0,4.0,96,0.00,,,0.02,meteohub,2013-04-25 05:37:00,
2013-04-25 01:42:00,35.8,34.7,30.20,SSW,194,0.0,4.0,96,0.00,,,0.03,meteohub,2013-04-25 05:42:00,
2013-04-25 01:47:00,35.4,34.3,30.20,SSW,194,0.0,4.0,96,0.01,,,0.03,meteohub,2013-04-25 05:47:00,
2013-04-25 01:52:00,35.1,33.8,30.20,SSW,194,0.0,4.0,95,0.01,,,0.03,meteohub,2013-04-25 05:52:00,
2013-04-25 01:57:00,35.1,33.8,30.20,SSW,194,0.0,2.0,95,0.01,,,0.03,meteohub,2013-04-25 05:57:00,
2013-04-25 02:02:00,34.9,33.8,30.20,SSW,194,0.0,2.0,96,0.01,,,0.03,meteohub,2013-04-25 06:02:00,
2013-04-25 02:07:00,34.7,33.6,30.20,SSW,194,0.0,2.0,96,0.01,,,0.03,meteohub,2013-04-25 06:07:00,
2013-04-25 02:12:00,34.5,33.3,30.20,SSW,194,0.0,2.0,95,0.01,,,0.03,meteohub,2013-04-25 06:12:00,
2013-04-25 02:17:00,34.5,33.4,30.20,SSW,194,1.0,0.0,96,0.01,,,0.03,meteohub,2013-04-25 06:17:00,
2013-04-25 02:22:00,34.5,33.4,30.20,SSW,194,0.0,0.0,96,0.01,,,0.03,meteohub,2013-04-25 06:22:00,
2013-04-25 02:27:00,34.5,33.4,30.20,SSW,194,0.0,2.0,96,0.01,,,0.03,meteohub,2013-04-25 06:27:00,
2013-04-25 02:32:00,34.3,33.3,30.20,SSW,194,0.0,2.0,96,0.01,,,0.03,meteohub,2013-04-25 06:32:00,
2013-04-25 02:37:00,34.3,33.3,30.20,SSW,194,0.0,0.0,96,0.00,,,0.03,meteohub,2013-04-25 06:37:00,
2013-04-25 02:42:00,34.3,33.3,30.20,SSW,194,0.0,0.0,96,0.00,,,0.03,meteohub,2013-04-25 06:42:00,
2013-04-25 02:47:00,34.0,32.9,30.20,SSW,194,0.0,2.0,96,0.00,,,0.03,meteohub,2013-04-25 06:47:00,
2013-04-25 02:52:00,33.6,32.5,30.20,SSW,194,0.0,2.0,96,0.00,,,0.03,meteohub,2013-04-25 06:52:00,
2013-04-25 02:57:00,33.4,32.2,30.21,SSW,194,0.0,0.0,95,0.00,,,0.03,meteohub,2013-04-25 06:57:00,
2013-04-25 03:02:00,33.3,32.2,30.21,SSW,194,0.0,0.0,96,0.00,,,0.03,meteohub,2013-04-25 07:02:00,
2013-04-25 03:07:00,33.3,32.2,30.21,SSW,194,0.0,0.0,96,0.00,,,0.03,meteohub,2013-04-25 07:07:00,
2013-04-25 03:12:00,33.3,32.2,30.21,SSW,194,0.0,0.0,96,0.00,,,0.03,meteohub,2013-04-25 07:12:00,
2013-04-25 03:17:00,33.1,32.0,30.21,SSW,194,0.0,1.0,96,0.00,,,0.03,meteohub,2013-04-25 07:17:00,
2013-04-25 03:22:00,33.1,32.0,30.21,SSW,194,0.0,1.0,96,0.00,,,0.03,meteohub,2013-04-25 07:22:00,
2013-04-25 03:27:00,33.3,32.2,30.22,SSW,194,0.0,2.0,96,0.00,,,0.03,meteohub,2013-04-25 07:27:00,
2013-04-25 03:32:00,33.3,32.2,30.22,SSW,194,0.0,2.0,96,0.00,,,0.03,meteohub,2013-04-25 07:32:00,
2013-04-25 03:37:00,33.3,32.2,30.22,SSW,194,0.0,2.0,96,0.00,,,0.03,meteohub,2013-04-25 07:37:00,
2013-04-25 03:42:00,33.3,32.2,30.22,SSW,194,0.0,2.0,96,0.00,,,0.03,meteohub,2013-04-25 07:42:00,
2013-04-25 03:47:00,33.3,32.2,30.22,SSW,194,0.0,3.0,96,0.00,,,0.03,meteohub,2013-04-25 07:47:00,
2013-04-25 03:52:00,33.3,32.2,30.22,SSW,194,0.0,3.0,96,0.00,,,0.03,meteohub,2013-04-25 07:52:00,
2013-04-25 03:57:00,33.4,32.4,30.22,SSW,194,2.0,3.0,96,0.00,,,0.03,meteohub,2013-04-25 07:57:00,
2013-04-25 04:02:00,33.6,32.9,30.22,SSW,194,3.0,3.0,97,0.00,,,0.03,meteohub,2013-04-25 08:02:00,
2013-04-25 04:07:00,33.6,32.9,30.22,SSW,194,0.0,3.0,97,0.00,,,0.03,meteohub,2013-04-25 08:07:00,
2013-04-25 04:12:00,33.4,32.4,30.23,SSW,194,0.0,3.0,96,0.00,,,0.03,meteohub,2013-04-25 08:12:00,
2013-04-25 04:17:00,33.3,32.2,30.23,SSW,194,0.0,5.0,96,0.00,,,0.03,meteohub,2013-04-25 08:17:00,
2013-04-25 04:22:00,33.1,32.0,30.23,SSW,194,0.0,5.0,96,0.00,,,0.03,meteohub,2013-04-25 08:22:00,
2013-04-25 04:27:00,32.9,31.8,30.23,SSW,194,0.0,1.0,96,0.00,,,0.03,meteohub,2013-04-25 08:27:00,
2013-04-25 04:32:00,33.1,32.0,30.23,SSW,194,2.0,2.0,96,0.00,,,0.03,meteohub,2013-04-25 08:32:00,
2013-04-25 04:37:00,33.3,32.2,30.23,SSW,194,3.0,4.0,96,0.00,,,0.03,meteohub,2013-04-25 08:37:00,
2013-04-25 04:42:00,33.3,32.2,30.24,SSW,194,2.0,4.0,96,0.00,,,0.03,meteohub,2013-04-25 08:42:00,
2013-04-25 04:47:00,33.3,32.2,30.24,SSW,194,3.0,6.0,96,0.00,,,0.03,meteohub,2013-04-25 08:47:00,
2013-04-25 04:52:00,33.4,32.4,30.24,SSW,194,0.0,6.0,96,0.00,,,0.03,meteohub,2013-04-25 08:52:00,
2013-04-25 04:57:00,33.3,32.2,30.24,SSW,194,1.0,5.0,96,0.00,,,0.03,meteohub,2013-04-25 08:57:00,
2013-04-25 05:02:00,33.1,32.0,30.24,SSW,194,0.0,5.0,96,0.00,,,0.03,meteohub,2013-04-25 09:02:00,
2013-04-25 05:07:00,33.3,32.2,30.24,SSW,194,4.0,4.0,96,0.00,,,0.03,meteohub,2013-04-25 09:07:00,
2013-04-25 05:12:00,33.1,32.0,30.24,SSW,194,1.0,3.0,96,0.00,,,0.03,meteohub,2013-04-25 09:12:00,
2013-04-25 05:17:00,32.9,31.8,30.24,SSW,194,1.0,4.0,96,0.00,,,0.03,meteohub,2013-04-25 09:17:00,
2013-04-25 05:22:00,32.7,31.6,30.24,SSW,194,3.0,4.0,96,0.00,,,0.03,meteohub,2013-04-25 09:22:00,
2013-04-25 05:27:00,32.7,31.6,30.24,SSW,194,1.0,3.0,96,0.00,,,0.03,meteohub,2013-04-25 09:27:00,
2013-04-25 05:32:00,32.5,31.5,30.24,SSW,194,0.0,3.0,96,0.00,,,0.03,meteohub,2013-04-25 09:32:00,
2013-04-25 05:37:00,32.5,31.5,30.25,SSW,194,0.0,3.0,96,0.00,,,0.03,meteohub,2013-04-25 09:37:00,
2013-04-25 05:42:00,32.5,31.5,30.25,SSW,194,2.0,3.0,96,0.00,,,0.03,meteohub,2013-04-25 09:42:00,
2013-04-25 05:47:00,32.5,31.5,30.25,SSW,194,1.0,4.0,96,0.00,,,0.03,meteohub,2013-04-25 09:47:00,
2013-04-25 05:52:00,32.4,31.3,30.25,SSW,194,1.0,4.0,96,0.00,,,0.03,meteohub,2013-04-25 09:52:00,
2013-04-25 05:57:00,32.4,31.3,30.26,SSW,194,1.0,3.0,96,0.00,,,0.03,meteohub,2013-04-25 09:57:00,
2013-04-25 06:02:00,32.2,31.1,30.26,SSW,194,1.0,3.0,96,0.00,,,0.03,meteohub,2013-04-25 10:02:00,
2013-04-25 06:07:00,31.8,30.7,30.26,SSW,194,0.0,3.0,96,0.00,,,0.03,meteohub,2013-04-25 10:07:00,
2013-04-25 06:12:00,31.8,30.7,30.26,SSW,194,2.0,3.0,96,0.00,,,0.03,meteohub,2013-04-25 10:12:00,
2013-04-25 06:18:00,31.8,30.7,30.26,SSW,194,1.0,4.0,96,0.00,,,0.03,meteohub,2013-04-25 10:18:00,
2013-04-25 06:23:00,31.6,30.6,30.26,SSW,194,2.0,4.0,96,0.00,,,0.03,meteohub,2013-04-25 10:23:00,
2013-04-25 06:28:00,31.6,30.6,30.26,SSW,194,0.0,5.0,96,0.00,,,0.03,meteohub,2013-04-25 10:28:00,
2013-04-25 06:34:00,31.6,30.6,30.26,SSW,194,2.0,5.0,96,0.00,,,0.03,meteohub,2013-04-25 10:34:00,
2013-04-25 06:39:00,31.6,30.6,30.27,SSW,194,3.0,5.0,96,0.00,,,0.03,meteohub,2013-04-25 10:39:00,
2013-04-25 06:44:00,31.6,30.6,30.27,SSW,194,2.0,5.0,96,0.00,,,0.03,meteohub,2013-04-25 10:44:00,
2013-04-25 06:50:00,31.6,30.6,30.27,SSW,194,3.0,5.0,96,0.00,,,0.03,meteohub,2013-04-25 10:50:00,
2013-04-25 06:55:00,31.6,30.6,30.27,SSW,194,4.0,5.0,96,0.00,,,0.03,meteohub,2013-04-25 10:55:00,
2013-04-25 07:00:00,31.6,30.6,30.27,SSW,194,4.0,6.0,96,0.00,,,0.03,meteohub,2013-04-25 11:00:00,
2013-04-25 07:06:00,31.6,30.6,30.27,SSW,194,5.0,6.0,96,0.00,,,0.03,meteohub,2013-04-25 11:06:00,
2013-04-25 07:11:00,31.8,30.7,30.27,SW,215,2.0,6.0,96,0.00,,,0.03,meteohub,2013-04-25 11:11:00,
2013-04-25 07:16:00,32.2,31.5,30.27,SSW,192,4.0,6.0,97,0.00,,,0.03,meteohub,2013-04-25 11:16:00,
2013-04-25 07:21:00,32.5,31.5,30.27,SSW,192,3.0,6.0,96,0.00,,,0.03,meteohub,2013-04-25 11:21:00,
2013-04-25 07:27:00,32.7,32.0,30.27,SSW,200,3.0,5.0,97,0.00,,,0.03,meteohub,2013-04-25 11:27:00,
2013-04-25 07:32:00,32.9,31.8,30.27,SSW,210,5.0,5.0,96,0.00,,,0.03,meteohub,2013-04-25 11:32:00,
2013-04-25 07:37:00,33.1,32.0,30.27,SSW,202,4.0,6.0,96,0.00,,,0.03,meteohub,2013-04-25 11:37:00,
2013-04-25 07:42:00,33.1,32.0,30.28,SW,214,6.0,6.0,96,0.00,,,0.03,meteohub,2013-04-25 11:42:00,
2013-04-25 07:47:00,33.4,32.4,30.28,SSW,204,4.0,8.0,96,0.00,,,0.03,meteohub,2013-04-25 11:47:00,
2013-04-25 07:52:00,33.6,32.5,30.28,SW,215,4.0,8.0,96,0.00,,,0.03,meteohub,2013-04-25 11:52:00,
2013-04-25 07:57:00,34.0,32.7,30.28,SW,217,6.0,7.0,95,0.00,,,0.03,meteohub,2013-04-25 11:57:00,
2013-04-25 08:02:00,34.2,32.9,30.28,South,189,6.0,7.0,95,0.00,,,0.03,meteohub,2013-04-25 12:02:00,
2013-04-25 08:07:00,34.5,33.3,30.29,SW,217,2.0,7.0,95,0.00,,,0.03,meteohub,2013-04-25 12:07:00,
2013-04-25 08:12:00,34.9,33.3,30.29,SW,218,6.0,7.0,94,0.00,,,0.03,meteohub,2013-04-25 12:12:00,
2013-04-25 08:17:00,35.1,33.3,30.29,South,183,6.0,8.0,93,0.00,,,0.03,meteohub,2013-04-25 12:17:00,
2013-04-25 08:22:00,35.2,33.1,30.28,SSW,208,5.0,8.0,92,0.00,,,0.03,meteohub,2013-04-25 12:22:00,
2013-04-25 08:27:00,35.8,33.6,30.29,SSW,199,6.0,7.0,92,0.00,,,0.03,meteohub,2013-04-25 12:27:00,
2013-04-25 08:32:00,36.0,33.6,30.29,SSW,198,7.0,7.0,91,0.00,,,0.03,meteohub,2013-04-25 12:32:00,
2013-04-25 08:37:00,36.3,33.6,30.30,SSW,207,3.0,8.0,90,0.00,,,0.03,meteohub,2013-04-25 12:37:00,
2013-04-25 08:42:00,36.9,34.0,30.30,South,189,6.0,8.0,89,0.00,,,0.03,meteohub,2013-04-25 12:42:00,
2013-04-25 08:47:00,37.2,34.3,30.29,SSW,213,4.0,11.0,89,0.00,,,0.03,meteohub,2013-04-25 12:47:00,
2013-04-25 08:52:00,37.6,34.0,30.29,SSW,207,5.0,11.0,87,0.00,,,0.03,meteohub,2013-04-25 12:52:00,
2013-04-25 08:57:00,37.8,34.2,30.30,SSW,207,5.0,10.0,87,0.00,,,0.03,meteohub,2013-04-25 12:57:00,
2013-04-25 09:02:00,38.1,34.5,30.29,SSW,201,2.0,10.0,87,0.00,,,0.03,meteohub,2013-04-25 13:02:00,
2013-04-25 09:07:00,38.7,34.5,30.28,SW,214,5.0,10.0,85,0.00,,,0.03,meteohub,2013-04-25 13:07:00,
2013-04-25 09:12:00,39.0,34.9,30.28,SSW,195,6.0,10.0,85,0.00,,,0.03,meteohub,2013-04-25 13:12:00,
2013-04-25 09:17:00,39.4,34.9,30.28,South,186,6.0,9.0,84,0.00,,,0.03,meteohub,2013-04-25 13:17:00,
2013-04-25 09:22:00,39.7,35.2,30.28,SSW,202,6.0,9.0,84,0.00,,,0.03,meteohub,2013-04-25 13:22:00,
2013-04-25 09:27:00,40.3,35.6,30.28,SSW,196,6.0,9.0,83,0.00,,,0.03,meteohub,2013-04-25 13:27:00,
2013-04-25 09:33:00,41.0,36.0,30.28,SSW,196,6.0,9.0,82,0.00,,,0.03,meteohub,2013-04-25 13:33:00,
2013-04-25 09:38:00,41.2,35.4,30.28,SSW,210,7.0,11.0,80,0.00,,,0.03,meteohub,2013-04-25 13:38:00,
2013-04-25 09:44:00,41.4,35.1,30.28,South,186,4.0,11.0,78,0.00,,,0.03,meteohub,2013-04-25 13:44:00,
2013-04-25 09:49:00,41.7,35.8,30.27,South,180,4.0,11.0,79,0.00,,,0.03,meteohub,2013-04-25 13:49:00,
2013-04-25 09:54:00,42.4,36.1,30.27,SW,219,6.0,9.0,78,0.00,,,0.03,meteohub,2013-04-25 13:54:00,
2013-04-25 10:00:00,42.6,36.0,30.27,SW,235,4.0,9.0,77,0.00,,,0.03,meteohub,2013-04-25 14:00:00,
2013-04-25 10:05:00,43.2,37.4,30.27,SSW,204,1.0,9.0,80,0.00,,,0.03,meteohub,2013-04-25 14:05:00,
2013-04-25 10:10:00,44.2,36.9,30.27,South,182,2.0,9.0,75,0.00,,,0.03,meteohub,2013-04-25 14:10:00,
2013-04-25 10:16:00,44.6,35.8,30.27,SSW,205,7.0,8.0,71,0.00,,,0.03,meteohub,2013-04-25 14:16:00,
2013-04-25 10:21:00,45.0,36.5,30.27,NW,310,1.0,7.0,72,0.00,,,0.03,meteohub,2013-04-25 14:21:00,
2013-04-25 10:27:00,45.3,36.1,30.27,SSW,192,6.0,12.0,70,0.00,,,0.03,meteohub,2013-04-25 14:27:00,
2013-04-25 10:32:00,45.7,36.1,30.27,SSW,211,7.0,12.0,69,0.00,,,0.03,meteohub,2013-04-25 14:32:00,
2013-04-25 10:37:00,45.7,35.8,30.27,SSW,200,3.0,12.0,68,0.00,,,0.03,meteohub,2013-04-25 14:37:00,
2013-04-25 10:42:00,46.2,36.3,30.27,SW,223,3.0,12.0,68,0.00,,,0.03,meteohub,2013-04-25 14:42:00,
2013-04-25 10:47:00,46.8,36.3,30.27,SSW,207,0.0,12.0,67,0.00,,,0.03,meteohub,2013-04-25 14:47:00,
2013-04-25 10:52:00,47.7,37.2,30.27,SSW,207,5.0,12.0,67,0.00,,,0.03,meteohub,2013-04-25 14:52:00,
2013-04-25 10:57:00,47.1,32.7,30.27,SSW,199,6.0,19.0,57,0.00,,,0.03,meteohub,2013-04-25 14:57:00,
2013-04-25 11:03:00,47.3,32.9,30.27,SSW,195,8.0,19.0,57,0.00,,,0.03,meteohub,2013-04-25 15:03:00,
2013-04-25 11:08:00,47.1,33.1,30.27,South,178,8.0,19.0,58,0.00,,,0.03,meteohub,2013-04-25 15:08:00,
2013-04-25 11:13:00,47.5,32.2,30.27,SSW,210,8.0,18.0,55,0.00,,,0.03,meteohub,2013-04-25 15:13:00,
2013-04-25 11:18:00,47.7,33.3,30.27,SSW,212,12.0,18.0,57,0.00,,,0.03,meteohub,2013-04-25 15:18:00,
2013-04-25 11:23:00,47.7,33.3,30.27,SW,216,9.0,16.0,57,0.00,,,0.03,meteohub,2013-04-25 15:23:00,
2013-04-25 11:29:00,47.5,33.1,30.27,SSW,209,3.0,18.0,57,0.00,,,0.03,meteohub,2013-04-25 15:29:00,
2013-04-25 11:34:00,47.8,33.3,30.27,SE,146,9.0,18.0,57,0.00,,,0.03,meteohub,2013-04-25 15:34:00,
2013-04-25 11:40:00,47.7,33.3,30.27,SSW,207,5.0,18.0,57,0.00,,,0.03,meteohub,2013-04-25 15:40:00,
2013-04-25 11:45:00,47.5,33.4,30.27,WSW,241,5.0,16.0,58,0.00,,,0.03,meteohub,2013-04-25 15:45:00,
2013-04-25 11:50:00,47.1,33.1,30.27,SW,221,7.0,16.0,58,0.00,,,0.03,meteohub,2013-04-25 15:50:00,
2013-04-25 11:56:00,47.7,33.3,30.27,SSE,164,10.0,19.0,57,0.00,,,0.03,meteohub,2013-04-25 15:56:00,
2013-04-25 12:01:00,47.5,31.3,30.27,South,178,5.0,19.0,53,0.00,,,0.03,meteohub,2013-04-25 16:01:00,
2013-04-25 12:07:00,48.0,33.1,30.26,South,191,5.0,24.0,56,0.00,,,0.03,meteohub,2013-04-25 16:07:00,
2013-04-25 12:12:00,48.7,34.2,30.26,WSW,254,4.0,24.0,57,0.00,,,0.03,meteohub,2013-04-25 16:12:00,
2013-04-25 12:17:00,49.3,33.8,30.26,SW,220,4.0,24.0,55,0.00,,,0.03,meteohub,2013-04-25 16:17:00,
2013-04-25 12:22:00,48.7,32.9,30.26,SW,219,9.0,24.0,54,0.00,,,0.03,meteohub,2013-04-25 16:22:00,
2013-04-25 12:27:00,49.1,32.2,30.26,SSW,202,10.0,15.0,52,0.00,,,0.03,meteohub,2013-04-25 16:27:00,
2013-04-25 12:33:00,49.3,33.3,30.26,SSW,213,7.0,18.0,54,0.00,,,0.03,meteohub,2013-04-25 16:33:00,
2013-04-25 12:38:00,49.3,32.0,30.26,SSW,208,7.0,18.0,51,0.00,,,0.03,meteohub,2013-04-25 16:38:00,
2013-04-25 12:44:00,49.3,31.5,30.25,West,275,6.0,20.0,50,0.00,,,0.03,meteohub,2013-04-25 16:44:00,
2013-04-25 12:49:00,49.8,33.8,30.25,SSW,209,5.0,20.0,54,0.00,,,0.03,meteohub,2013-04-25 16:49:00,
2013-04-25 12:54:00,49.8,32.9,30.25,SSW,212,9.0,20.0,52,0.00,,,0.03,meteohub,2013-04-25 16:54:00,
2013-04-25 13:00:00,50.4,33.4,30.25,SSW,210,12.0,20.0,52,0.00,,,0.03,meteohub,2013-04-25 17:00:00,
2013-04-25 13:05:00,50.2,33.3,30.25,SSW,209,1.0,17.0,52,0.00,,,0.03,meteohub,2013-04-25 17:05:00,
2013-04-25 13:10:00,50.4,32.9,30.25,South,183,2.0,17.0,51,0.00,,,0.03,meteohub,2013-04-25 17:10:00,
2013-04-25 13:16:00,49.8,30.4,30.25,SSW,211,12.0,22.0,47,0.00,,,0.03,meteohub,2013-04-25 17:16:00,
2013-04-25 13:21:00,50.2,33.3,30.25,SSW,194,5.0,22.0,52,0.00,,,0.03,meteohub,2013-04-25 17:21:00,
2013-04-25 13:26:00,50.5,31.1,30.25,SSW,206,12.0,22.0,47,0.00,,,0.03,meteohub,2013-04-25 17:26:00,
2013-04-25 13:32:00,50.4,32.0,30.25,South,188,8.0,21.0,49,0.00,,,0.03,meteohub,2013-04-25 17:32:00,
2013-04-25 13:37:00,50.5,30.6,30.25,SW,215,14.0,21.0,46,0.00,,,0.03,meteohub,2013-04-25 17:37:00,
2013-04-25 13:42:00,50.9,31.5,30.25,SSW,196,16.0,21.0,47,0.00,,,0.03,meteohub,2013-04-25 17:42:00,
2013-04-25 13:47:00,50.7,31.3,30.25,SW,226,7.0,20.0,47,0.00,,,0.03,meteohub,2013-04-25 17:47:00,
2013-04-25 13:52:00,50.7,31.8,30.25,SSE,148,12.0,20.0,48,0.00,,,0.03,meteohub,2013-04-25 17:52:00,
2013-04-25 13:57:00,50.9,31.5,30.24,SSW,200,7.0,20.0,47,0.00,,,0.03,meteohub,2013-04-25 17:57:00,
2013-04-25 14:02:00,51.3,31.6,30.24,SSW,200,13.0,20.0,47,0.00,,,0.03,meteohub,2013-04-25 18:02:00,
2013-04-25 14:08:00,50.7,29.7,30.24,SSW,211,15.0,17.0,44,0.00,,,0.03,meteohub,2013-04-25 18:08:00,
2013-04-25 14:13:00,50.5,30.6,30.24,South,188,11.0,22.0,46,0.00,,,0.03,meteohub,2013-04-25 18:13:00,
2013-04-25 14:18:00,51.1,31.6,30.24,South,186,7.0,22.0,47,0.00,,,0.03,meteohub,2013-04-25 18:18:00,
2013-04-25 14:24:00,51.6,31.5,30.24,SSW,204,10.0,22.0,46,0.00,,,0.03,meteohub,2013-04-25 18:24:00,
2013-04-25 14:29:00,51.6,30.4,30.23,South,182,9.0,20.0,44,0.00,,,0.03,meteohub,2013-04-25 18:29:00,
2013-04-25 14:34:00,51.1,29.8,30.23,SSW,213,11.0,19.0,44,0.00,,,0.03,meteohub,2013-04-25 18:34:00,
2013-04-25 14:39:00,51.3,31.1,30.23,SSE,165,10.0,19.0,46,0.00,,,0.03,meteohub,2013-04-25 18:39:00,
2013-04-25 14:45:00,51.4,30.7,30.23,WSW,256,3.0,21.0,45,0.00,,,0.03,meteohub,2013-04-25 18:45:00,
2013-04-25 14:50:00,51.6,31.5,30.23,SW,223,10.0,21.0,46,0.00,,,0.03,meteohub,2013-04-25 18:50:00,
2013-04-25 14:55:00,51.6,32.0,30.23,SSW,198,11.0,21.0,47,0.00,,,0.03,meteohub,2013-04-25 18:55:00,
2013-04-25 15:01:00,51.4,31.8,30.23,SSW,210,2.0,21.0,47,0.00,,,0.03,meteohub,2013-04-25 19:01:00,
2013-04-25 15:06:00,51.1,32.5,30.23,SW,225,4.0,21.0,49,0.00,,,0.03,meteohub,2013-04-25 19:06:00,
2013-04-25 15:11:00,50.7,32.2,30.25,West,261,1.0,21.0,49,0.00,,,0.03,meteohub,2013-04-25 19:11:00,
2013-04-25 15:16:00,49.8,33.8,30.25,SW,217,10.0,27.0,54,0.00,,,0.03,meteohub,2013-04-25 19:16:00,
2013-04-25 15:22:00,48.4,36.0,30.26,West,269,3.0,27.0,62,0.00,,,0.03,meteohub,2013-04-25 19:22:00,
2013-04-25 15:27:00,47.7,36.9,30.25,SSW,197,4.0,24.0,66,0.00,,,0.03,meteohub,2013-04-25 19:27:00,
2013-04-25 15:32:00,47.3,37.6,30.26,North,355,2.0,24.0,69,0.00,,,0.03,meteohub,2013-04-25 19:32:00,
2013-04-25 15:37:00,47.5,38.1,30.26,West,275,1.0,9.0,70,0.01,,,0.04,meteohub,2013-04-25 19:37:00,
2013-04-25 15:42:00,47.8,37.0,30.25,NNW,327,4.0,8.0,66,0.01,,,0.04,meteohub,2013-04-25 19:42:00,
2013-04-25 15:47:00,48.0,37.6,30.25,WNW,294,6.0,12.0,67,0.01,,,0.04,meteohub,2013-04-25 19:47:00,
2013-04-25 15:52:00,48.6,37.8,30.25,NW,306,7.0,12.0,66,0.01,,,0.04,meteohub,2013-04-25 19:52:00,
2013-04-25 15:57:00,48.7,37.6,30.26,South,175,4.0,12.0,65,0.01,,,0.04,meteohub,2013-04-25 19:57:00,
2013-04-25 16:02:00,49.1,37.8,30.25,SSW,209,4.0,10.0,65,0.01,,,0.04,meteohub,2013-04-25 20:02:00,
2013-04-25 16:07:00,49.3,37.2,30.25,WNW,290,4.0,10.0,63,0.01,,,0.04,meteohub,2013-04-25 20:07:00,
2013-04-25 16:12:00,49.3,37.9,30.25,West,263,1.0,10.0,65,0.01,,,0.04,meteohub,2013-04-25 20:12:00,
2013-04-25 16:17:00,48.9,37.2,30.25,SSW,198,3.0,11.0,64,0.01,,,0.04,meteohub,2013-04-25 20:17:00,
2013-04-25 16:23:00,48.9,37.2,30.25,South,186,0.0,11.0,64,0.01,,,0.04,meteohub,2013-04-25 20:23:00,
2013-04-25 16:28:00,49.1,38.7,30.25,West,259,0.0,10.0,67,0.01,,,0.04,meteohub,2013-04-25 20:28:00,
2013-04-25 16:33:00,49.3,37.9,30.25,ENE,71,1.0,10.0,65,0.00,,,0.04,meteohub,2013-04-25 20:33:00,
2013-04-25 16:39:00,49.3,38.5,30.25,NE,46,0.0,7.0,66,0.00,,,0.04,meteohub,2013-04-25 20:39:00,
2013-04-25 16:44:00,49.3,37.2,30.25,West,277,0.0,6.0,63,0.00,,,0.04,meteohub,2013-04-25 20:44:00,
2013-04-25 16:49:00,49.3,37.9,30.25,West,260,0.0,6.0,65,0.00,,,0.04,meteohub,2013-04-25 20:49:00,
2013-04-25 16:55:00,48.7,38.3,30.25,SW,219,3.0,5.0,67,0.00,,,0.04,meteohub,2013-04-25 20:55:00,
2013-04-25 17:00:00,48.6,39.2,30.27,WSW,242,7.0,11.0,70,0.00,,,0.04,meteohub,2013-04-25 21:00:00,
2013-04-25 17:05:00,47.3,39.7,30.27,West,267,2.0,11.0,75,0.00,,,0.04,meteohub,2013-04-25 21:05:00,
2013-04-25 17:11:00,46.2,39.7,30.27,East,80,0.0,11.0,78,0.00,,,0.04,meteohub,2013-04-25 21:11:00,
2013-04-25 17:16:00,45.1,38.7,30.27,WSW,254,2.0,10.0,78,0.01,,,0.05,meteohub,2013-04-25 21:16:00,
2013-04-25 17:21:00,44.4,39.0,30.28,SW,236,3.0,10.0,81,0.01,,,0.05,meteohub,2013-04-25 21:21:00,
2013-04-25 17:26:00,43.9,39.0,30.27,SSW,212,7.0,10.0,83,0.02,,,0.06,meteohub,2013-04-25 21:26:00,
2013-04-25 17:32:00,43.3,39.2,30.27,South,188,6.0,10.0,85,0.02,,,0.06,meteohub,2013-04-25 21:32:00,
2013-04-25 17:37:00,43.3,39.7,30.27,West,274,2.0,14.0,87,0.02,,,0.06,meteohub,2013-04-25 21:37:00,
2013-04-25 17:42:00,43.3,39.7,30.27,SW,217,3.0,14.0,87,0.02,,,0.06,meteohub,2013-04-25 21:42:00,
2013-04-25 17:47:00,43.2,39.6,30.27,SSW,192,2.0,14.0,87,0.02,,,0.06,meteohub,2013-04-25 21:47:00,
2013-04-25 17:52:00,43.3,39.7,30.27,WSW,256,3.0,11.0,87,0.02,,,0.06,meteohub,2013-04-25 21:52:00,
2013-04-25 17:57:00,43.5,39.9,30.28,SSW,211,3.0,11.0,87,0.02,,,0.06,meteohub,2013-04-25 21:57:00,
2013-04-25 18:02:00,43.5,39.6,30.28,SSW,206,1.0,11.0,86,0.02,,,0.06,meteohub,2013-04-25 22:02:00,
2013-04-25 18:07:00,43.7,39.6,30.29,West,267,2.0,11.0,85,0.02,,,0.06,meteohub,2013-04-25 22:07:00,
2013-04-25 18:13:00,43.3,39.2,30.30,WNW,297,2.0,11.0,85,0.01,,,0.06,meteohub,2013-04-25 22:13:00,
2013-04-25 18:18:00,42.4,38.5,30.31,WNW,287,0.0,9.0,86,0.01,,,0.06,meteohub,2013-04-25 22:18:00,
2013-04-25 18:23:00,41.9,38.7,30.30,WSW,252,3.0,9.0,88,0.01,,,0.08,meteohub,2013-04-25 22:23:00,
2013-04-25 18:28:00,41.5,38.5,30.30,SSW,208,2.0,9.0,89,0.04,,,0.08,meteohub,2013-04-25 22:28:00,
2013-04-25 18:34:00,41.7,39.0,30.30,SSW,198,4.0,7.0,90,0.03,,,0.09,meteohub,2013-04-25 22:34:00,
2013-04-25 18:39:00,41.9,39.4,30.30,SSW,198,0.0,7.0,91,0.03,,,0.09,meteohub,2013-04-25 22:39:00,
2013-04-25 18:44:00,41.9,38.8,30.30,SSW,213,2.0,5.0,89,0.03,,,0.09,meteohub,2013-04-25 22:44:00,
2013-04-25 18:49:00,41.9,39.2,30.30,SSW,213,0.0,5.0,90,0.03,,,0.09,meteohub,2013-04-25 22:49:00,
2013-04-25 18:54:00,42.1,39.4,30.30,SSW,205,3.0,4.0,90,0.03,,,0.09,meteohub,2013-04-25 22:54:00,
2013-04-25 19:00:00,42.3,39.6,30.30,SSW,205,1.0,5.0,90,0.03,,,0.09,meteohub,2013-04-25 23:00:00,
2013-04-25 19:05:00,42.3,39.2,30.30,SSW,205,0.0,5.0,89,0.03,,,0.09,meteohub,2013-04-25 23:05:00,
2013-04-25 19:10:00,42.4,39.7,30.30,SSW,205,0.0,5.0,90,0.03,,,0.09,meteohub,2013-04-25 23:10:00,
2013-04-25 19:16:00,42.4,39.4,30.30,SSW,205,0.0,5.0,89,0.02,,,0.09,meteohub,2013-04-25 23:16:00,
2013-04-25 19:21:00,42.6,39.6,30.30,SSW,205,0.0,5.0,89,0.02,,,0.09,meteohub,2013-04-25 23:21:00,
2013-04-25 19:26:00,42.8,39.7,30.31,SSW,205,0.0,0.0,89,0.00,,,0.09,meteohub,2013-04-25 23:26:00,
2013-04-25 19:31:00,43.0,39.9,30.31,SSW,205,0.0,0.0,89,0.00,,,0.09,meteohub,2013-04-25 23:31:00,
2013-04-25 19:37:00,43.0,39.9,30.31,SSW,205,0.0,0.0,89,0.00,,,0.09,meteohub,2013-04-25 23:37:00,
2013-04-25 19:42:00,43.0,39.4,30.31,SSW,205,0.0,0.0,87,0.00,,,0.09,meteohub,2013-04-25 23:42:00,
2013-04-25 19:47:00,42.8,38.8,30.32,SSW,205,0.0,1.0,86,0.00,,,0.09,meteohub,2013-04-25 23:47:00,
2013-04-25 19:52:00,42.6,38.1,30.32,SSW,205,0.0,3.0,84,0.00,,,0.09,meteohub,2013-04-25 23:52:00,
2013-04-25 19:57:00,42.4,37.4,30.32,SSW,205,0.0,3.0,82,0.00,,,0.09,meteohub,2013-04-25 23:57:00,
2013-04-25 20:02:00,42.3,37.2,30.32,SSW,205,0.0,3.0,82,0.00,,,0.09,meteohub,2013-04-26 00:02:00,
2013-04-25 20:07:00,42.1,37.0,30.33,SSW,205,0.0,3.0,82,0.00,,,0.09,meteohub,2013-04-26 00:07:00,
2013-04-25 20:12:00,41.7,36.7,30.33,SSW,205,0.0,3.0,82,0.00,,,0.00,meteohub,2013-04-26 00:12:00,
2013-04-25 20:17:00,41.5,36.7,30.33,SSW,205,0.0,4.0,83,0.00,,,0.00,meteohub,2013-04-26 00:17:00,
2013-04-25 20:22:00,41.4,36.5,30.33,SSW,205,0.0,4.0,83,0.00,,,0.00,meteohub,2013-04-26 00:22:00,
2013-04-25 20:27:00,41.4,36.5,30.33,SSW,205,0.0,2.0,83,0.00,,,0.00,meteohub,2013-04-26 00:27:00,
2013-04-25 20:32:00,41.0,36.5,30.34,SSW,205,0.0,0.0,84,0.00,,,0.00,meteohub,2013-04-26 00:32:00,
2013-04-25 20:37:00,40.8,36.3,30.34,SSW,205,0.0,0.0,84,0.00,,,0.00,meteohub,2013-04-26 00:37:00,
2013-04-25 20:42:00,40.6,36.1,30.34,SSW,205,0.0,0.0,84,0.00,,,0.00,meteohub,2013-04-26 00:42:00,
2013-04-25 20:47:00,40.6,36.1,30.35,SSW,205,0.0,0.0,84,0.00,,,0.00,meteohub,2013-04-26 00:47:00,
2013-04-25 20:52:00,40.5,36.0,30.35,SSW,205,0.0,0.0,84,0.00,,,0.00,meteohub,2013-04-26 00:52:00,
2013-04-25 20:57:00,40.3,35.8,30.35,SSW,205,0.0,0.0,84,0.00,,,0.00,meteohub,2013-04-26 00:57:00,
2013-04-25 21:02:00,40.3,36.5,30.35,SSW,205,0.0,0.0,86,0.00,,,0.00,meteohub,2013-04-26 01:02:00,
2013-04-25 21:07:00,40.3,36.7,30.35,SSW,205,0.0,2.0,87,0.00,,,0.00,meteohub,2013-04-26 01:07:00,
2013-04-25 21:12:00,40.3,37.0,30.35,SSW,205,0.0,2.0,88,0.00,,,0.00,meteohub,2013-04-26 01:12:00,
2013-04-25 21:17:00,39.9,36.7,30.36,SSW,205,0.0,2.0,88,0.00,,,0.00,meteohub,2013-04-26 01:17:00,
2013-04-25 21:22:00,39.7,36.7,30.36,SSW,205,0.0,0.0,89,0.00,,,0.00,meteohub,2013-04-26 01:22:00,
2013-04-25 21:27:00,39.7,36.7,30.36,SSW,205,0.0,0.0,89,0.00,,,0.00,meteohub,2013-04-26 01:27:00,
2013-04-25 21:32:00,39.6,36.9,30.36,SSW,205,0.0,0.0,90,0.00,,,0.00,meteohub,2013-04-26 01:32:00,
2013-04-25 21:37:00,39.0,36.1,30.37,SSW,205,0.0,0.0,89,0.00,,,0.00,meteohub,2013-04-26 01:37:00,
2013-04-25 21:42:00,38.8,36.1,30.37,SSW,205,0.0,0.0,90,0.00,,,0.00,meteohub,2013-04-26 01:42:00,
2013-04-25 21:47:00,38.8,36.5,30.37,SSW,205,0.0,0.0,91,0.00,,,0.00,meteohub,2013-04-26 01:47:00,
2013-04-25 21:52:00,38.7,36.3,30.37,SSW,205,0.0,0.0,91,0.00,,,0.00,meteohub,2013-04-26 01:52:00,
2013-04-25 21:57:00,38.5,36.1,30.37,SSW,205,0.0,0.0,91,0.00,,,0.00,meteohub,2013-04-26 01:57:00,
2013-04-25 22:02:00,38.1,35.8,30.38,SSW,205,0.0,0.0,91,0.00,,,0.00,meteohub,2013-04-26 02:02:00,
2013-04-25 22:07:00,37.9,35.6,30.38,SSW,205,0.0,0.0,91,0.00,,,0.00,meteohub,2013-04-26 02:07:00,
2013-04-25 22:12:00,37.8,35.4,30.38,SSW,205,0.0,0.0,91,0.00,,,0.00,meteohub,2013-04-26 02:12:00,
2013-04-25 22:17:00,37.8,35.6,30.38,SSW,205,0.0,0.0,92,0.00,,,0.00,meteohub,2013-04-26 02:17:00,
2013-04-25 22:22:00,37.6,35.4,30.38,SSW,205,0.0,0.0,92,0.00,,,0.00,meteohub,2013-04-26 02:22:00,
2013-04-25 22:27:00,37.2,35.1,30.38,SSW,205,0.0,0.0,92,0.00,,,0.00,meteohub,2013-04-26 02:27:00,
2013-04-25 22:32:00,37.2,35.4,30.38,SSW,205,0.0,0.0,93,0.00,,,0.00,meteohub,2013-04-26 02:32:00,
2013-04-25 22:37:00,37.0,34.9,30.39,SSW,205,0.0,0.0,92,0.00,,,0.00,meteohub,2013-04-26 02:37:00,
2013-04-25 22:42:00,36.9,35.1,30.39,SSW,205,0.0,0.0,93,0.00,,,0.00,meteohub,2013-04-26 02:42:00,
2013-04-25 22:47:00,36.9,35.1,30.39,SSW,205,0.0,1.0,93,0.00,,,0.00,meteohub,2013-04-26 02:47:00,
2013-04-25 22:52:00,36.7,34.9,30.39,SSW,205,0.0,1.0,93,0.00,,,0.00,meteohub,2013-04-26 02:52:00,
2013-04-25 22:57:00,36.3,34.5,30.39,SSW,205,0.0,0.0,93,0.00,,,0.00,meteohub,2013-04-26 02:57:00,
2013-04-25 23:03:00,36.1,34.3,30.39,SSW,205,0.0,0.0,93,0.00,,,0.00,meteohub,2013-04-26 03:03:00,
2013-04-25 23:08:00,36.1,34.3,30.39,SSW,205,0.0,0.0,93,0.00,,,0.00,meteohub,2013-04-26 03:08:00,
2013-04-25 23:13:00,36.0,34.2,30.39,SSW,205,0.0,0.0,93,0.00,,,0.00,meteohub,2013-04-26 03:13:00,
2013-04-25 23:19:00,35.8,34.0,30.39,SSW,205,0.0,0.0,93,0.00,,,0.00,meteohub,2013-04-26 03:19:00,
2013-04-25 23:24:00,35.6,33.8,30.39,SSW,205,0.0,0.0,93,0.00,,,0.00,meteohub,2013-04-26 03:24:00,
2013-04-25 23:29:00,35.4,33.6,30.39,SSW,205,0.0,0.0,93,0.00,,,0.00,meteohub,2013-04-26 03:29:00,
2013-04-25 23:34:00,35.2,33.6,30.39,SSW,205,0.0,0.0,94,0.00,,,0.00,meteohub,2013-04-26 03:34:00,
2013-04-25 23:40:00,35.2,33.6,30.40,SSW,205,0.0,0.0,94,0.00,,,0.00,meteohub,2013-04-26 03:40:00,
2013-04-25 23:45:00,35.2,33.6,30.40,SSW,205,0.0,0.0,94,0.00,,,0.00,meteohub,2013-04-26 03:45:00,
2013-04-25 23:50:00,35.2,33.6,30.40,SSW,205,0.0,0.0,94,0.00,,,0.00,meteohub,2013-04-26 03:50:00,
2013-04-25 23:56:00,35.2,33.6,30.40,SSW,205,0.0,0.0,94,0.00,,,0.00,meteohub,2013-04-26 03:56:00,